ENAN/ANX METAR and TAF weather

Enter ICAO airport designator
Station Type Date Time Source
ENAN METAR 2021/09/25 13:20 UTC NOAA

ENAN 251320Z 27008KT 9999 FEW009 BKN037 10/06 Q0999


Station Type Date Time Source
ENAN Decoded METAR 2021/09/25 13:20 UTC NOAA

Andoya, Norway (ENAN) 69-18N 016-09E 14M
Sep 25, 2021 - 09:20 AM EDT / 2021.09.25 1320 UTC
Wind: from the W (270 degrees) at 9 MPH (8 KT):0
Visibility: greater than 7 mile(s):0
Sky conditions: mostly cloudy
Temperature: 50 F (10 C)
Dew Point: 42 F (6 C)
Relative Humidity: 76%
Pressure (altimeter): 29.50 in. Hg (0999 hPa)
ob: ENAN 251320Z 27008KT 9999 FEW009 BKN037 10/06 Q0999
cycle: 13

Station Type Date Time Source
ENAN TAF 2021/09/25 12:58 UTC NOAA

TAF ENAN 251100Z 2512/2612 27010KT 9999 -SHRA FEW010 BKN030 PROB40
TEMPO 2512/2524 4000 SHRA BKN020CB
BECMG 2522/2524 20009KT
BECMG 2607/2610 18020KT
TEMPO 2610/2612 RADZ

Example: see airport list